Time;durP1;ratioP1;P1;durP2;ratioP2;P2;SDS_P1;SDS_P2;PMS_P1;PMS_P2;Temp;Humidity;BMP_temperature;BMP_pressure;BME280_temperature;BME280_humidity;BME280_pressure;Samples;Min_cycle;Max_cycle;Signal;HPM_P1;HPM_P2
2023/02/20 00:00:34;;;;;;;7.07;4.20;;;;;;;6.73;73.19;100932.88;5003558;28;20050;-44
2023/02/20 00:03:00;;;;;;;7.55;3.72;;;;;;;6.73;72.92;100932.88;5000230;28;20073;-43
2023/02/20 00:05:27;;;;;;;6.63;2.28;;;;;;;6.72;73.97;100937.16;5002712;28;20057;-42
2023/02/20 00:07:53;;;;;;;10.10;4.55;;;;;;;6.74;72.41;100930.34;4990053;28;20050;-42
2023/02/20 00:10:20;;;;;;;8.30;1.98;;;;;;;6.77;74.00;100934.72;4990206;28;20047;-47
2023/02/20 00:12:47;;;;;;;5.78;3.83;;;;;;;6.78;73.14;100932.19;4990006;28;20085;-43
2023/02/20 00:15:15;;;;;;;6.97;2.40;;;;;;;6.85;73.95;100928.06;4989479;28;20481;-46
2023/02/20 00:17:43;;;;;;;4.93;1.83;;;;;;;6.89;72.82;100929.88;4988507;28;20050;-39
2023/02/20 00:20:10;;;;;;;7.85;3.65;;;;;;;6.94;73.78;100917.13;4991275;28;20054;-46
2023/02/20 00:22:37;;;;;;;5.75;2.22;;;;;;;6.99;74.29;100912.97;4988213;28;20065;-44
2023/02/20 00:25:03;;;;;;;6.13;2.15;;;;;;;7.04;73.80;100913.09;4989814;28;20082;-42
2023/02/20 00:27:30;;;;;;;6.78;3.85;;;;;;;7.08;73.08;100907.19;4989974;28;20046;-45
2023/02/20 00:29:56;;;;;;;8.18;3.17;;;;;;;7.09;73.79;100914.06;4990225;28;20095;-40
2023/02/20 00:32:23;;;;;;;4.80;3.28;;;;;;;7.07;74.67;100902.88;4990138;28;20096;-43
2023/02/20 00:34:50;;;;;;;6.13;2.35;;;;;;;7.14;73.08;100909.03;4988568;28;20105;-46
2023/02/20 00:37:16;;;;;;;6.38;2.38;;;;;;;7.20;73.26;100899.75;4987842;28;20133;-43
2023/02/20 00:39:43;;;;;;;6.25;3.50;;;;;;;7.21;73.99;100895.50;4989154;28;20050;-41
2023/02/20 00:42:10;;;;;;;6.35;2.22;;;;;;;7.27;74.10;100894.78;4989445;28;20074;-45
2023/02/20 00:44:36;;;;;;;6.30;3.50;;;;;;;7.28;73.95;100891.34;4989625;28;20089;-45
2023/02/20 00:47:03;;;;;;;7.53;3.35;;;;;;;7.32;73.76;100890.59;4988164;28;20518;-46
2023/02/20 00:49:30;;;;;;;6.10;1.60;;;;;;;7.35;74.31;100882.94;4989532;28;20105;-41
2023/02/20 00:51:56;;;;;;;4.53;2.95;;;;;;;7.38;74.33;100871.81;4989225;28;20042;-41
2023/02/20 00:54:23;;;;;;;5.70;3.78;;;;;;;7.37;73.93;100876.13;4989318;28;20501;-43
2023/02/20 00:56:49;;;;;;;7.07;3.20;;;;;;;7.40;73.67;100876.19;4988706;28;20378;-44
2023/02/20 00:59:16;;;;;;;4.03;1.30;;;;;;;7.37;73.98;100876.13;4988492;28;20082;-43
2023/02/20 01:01:43;;;;;;;4.70;1.77;;;;;;;7.41;73.79;100884.78;4987911;28;20054;-41
2023/02/20 01:04:09;;;;;;;4.93;1.40;;;;;;;7.43;74.03;100890.88;4989121;28;20057;-48
2023/02/20 01:06:36;;;;;;;5.30;2.00;;;;;;;7.43;73.61;100873.69;4989319;28;20518;-43
2023/02/20 01:09:03;;;;;;;6.65;4.15;;;;;;;7.45;74.27;100864.28;4988652;28;20043;-42
2023/02/20 01:11:29;;;;;;;5.53;1.92;;;;;;;7.45;74.38;100864.28;4988915;28;20506;-47
2023/02/20 01:13:56;;;;;;;4.70;1.80;;;;;;;7.44;74.95;100859.94;4989096;28;20129;-45
2023/02/20 01:16:22;;;;;;;4.68;2.03;;;;;;;7.43;73.84;100855.63;4989134;28;20070;-48
2023/02/20 01:18:50;;;;;;;4.53;1.70;;;;;;;7.43;74.43;100868.53;4983165;28;20137;-43
2023/02/20 01:21:17;;;;;;;10.07;2.40;;;;;;;7.43;73.79;100855.63;4971264;28;20502;-42
2023/02/20 01:23:44;;;;;;;4.60;1.70;;;;;;;7.45;74.77;100861.72;4988274;28;20460;-45
2023/02/20 01:26:10;;;;;;;7.13;1.90;;;;;;;7.49;73.60;100854.06;4989422;28;20073;-45
2023/02/20 01:28:37;;;;;;;5.78;1.65;;;;;;;7.48;73.88;100862.59;4987459;28;20057;-44
2023/02/20 01:31:04;;;;;;;5.97;2.00;;;;;;;7.51;74.13;100862.69;4988823;28;20190;-44
2023/02/20 01:33:31;;;;;;;5.20;1.92;;;;;;;7.51;74.86;100858.41;4988312;28;20050;-44
2023/02/20 01:35:57;;;;;;;5.10;1.77;;;;;;;7.51;74.76;100858.41;4989095;28;20503;-41
2023/02/20 01:38:24;;;;;;;6.05;3.42;;;;;;;7.51;74.59;100862.69;4987299;28;20640;-41
2023/02/20 01:40:50;;;;;;;7.93;3.38;;;;;;;7.52;73.94;100864.41;4986226;28;20590;-45
2023/02/20 01:43:17;;;;;;;7.40;3.10;;;;;;;7.50;75.10;100850.63;4979311;28;20051;-44
2023/02/20 01:45:44;;;;;;;5.40;4.07;;;;;;;7.49;74.89;100860.06;4985667;28;20084;-44
2023/02/20 01:48:20;;;;;;;3.92;1.40;;;;;;;7.49;74.46;100856.63;4988127;28;20050;-44
2023/02/20 01:50:49;;;;;;;4.13;1.75;;;;;;;7.54;75.07;100860.19;4988231;28;20104;-43
2023/02/20 01:53:20;;;;;;;5.70;1.30;;;;;;;7.56;75.69;100866.22;4988312;28;20973;-43
2023/02/20 01:55:54;;;;;;;7.20;1.77;;;;;;;7.58;74.21;100869.72;4988477;28;20054;-44
2023/02/20 01:58:26;;;;;;;3.25;1.45;;;;;;;7.57;74.59;100862.81;4988077;28;20489;-42
2023/02/20 02:00:54;;;;;;;4.57;1.70;;;;;;;7.61;74.95;100864.63;4988192;28;20468;-43
2023/02/20 02:03:25;;;;;;;7.93;2.03;;;;;;;7.61;75.26;100864.63;4988479;28;20073;-42
2023/02/20 02:05:59;;;;;;;4.05;1.55;;;;;;;7.62;74.75;100850.91;4988684;28;20548;-43
2023/02/20 02:08:27;;;;;;;5.35;1.85;;;;;;;7.66;74.20;100852.72;4982353;28;20101;-47
2023/02/20 02:13:42;;;;;;;5.38;1.67;;;;;;;7.66;74.65;100842.41;5029193;27;20410;-45
2023/02/20 02:16:39;;;;;;;2.45;1.23;;;;;;;7.62;74.87;100835.44;5024283;28;20096;-42
2023/02/20 02:28:09;;;;;;;8.57;2.10;;;;;;;7.59;75.79;100830.19;5088653;27;20411;-43
2023/02/20 02:42:15;;;;;;;6.53;3.13;;;;;;;7.95;74.96;100826.69;5045090;28;20392;-44
2023/02/20 02:47:37;;;;;;;5.18;3.97;;;;;;;7.79;75.07;100809.13;5064766;28;20379;-44
2023/02/20 02:50:14;;;;;;;7.93;3.20;;;;;;;7.77;76.18;100803.94;5023786;28;20077;-44
2023/02/20 02:52:49;;;;;;;5.22;3.10;;;;;;;7.77;75.42;100803.09;5039312;28;20072;-45
2023/02/20 02:55:19;;;;;;;4.47;1.55;;;;;;;7.74;75.88;100801.31;5043532;28;20072;-48
2023/02/20 02:57:46;;;;;;;4.18;2.75;;;;;;;7.75;75.89;100804.75;5042416;28;20134;-42
2023/02/20 03:00:20;;;;;;;6.07;1.45;;;;;;;7.72;75.97;100796.13;5043622;28;20080;-45
2023/02/20 03:03:04;;;;;;;5.60;3.22;;;;;;;7.68;75.67;100804.63;5041957;28;20053;-41
2023/02/20 03:05:39;;;;;;;5.78;2.10;;;;;;;7.69;76.00;100806.38;5044442;28;20075;-42
2023/02/20 03:08:13;;;;;;;4.60;1.70;;;;;;;7.68;75.15;100796.03;5044147;28;20095;-40
2023/02/20 03:10:43;;;;;;;5.00;1.77;;;;;;;7.71;75.83;100793.50;5042375;28;20057;-41
2023/02/20 03:13:11;;;;;;;6.18;3.20;;;;;;;7.68;75.52;100794.31;5043822;28;20611;-43
2023/02/20 03:15:42;;;;;;;4.85;1.40;;;;;;;7.66;75.38;100790.81;5043476;28;20053;-45
2023/02/20 03:20:50;;;;;;;4.40;2.17;;;;;;;7.62;75.39;100776.13;5099950;27;20384;-43
2023/02/20 03:23:23;;;;;;;3.75;1.40;;;;;;;7.58;74.79;100787.22;5066851;28;20101;-41
2023/02/20 03:25:54;;;;;;;5.47;2.38;;;;;;;7.54;75.92;100790.56;5064540;28;20088;-48
2023/02/20 03:28:29;;;;;;;4.00;1.95;;;;;;;7.53;74.94;100794.00;5064043;28;20044;-44
2023/02/20 03:31:03;;;;;;;4.60;1.85;;;;;;;7.49;74.76;100802.50;5063941;28;20107;-41
2023/02/20 03:45:00;;;;;;;5.45;2.30;;;;;;;7.44;75.03;100792.94;5048638;28;20113;-44
2023/02/20 03:47:29;;;;;;;5.40;2.35;;;;;;;7.44;74.48;100785.19;5060496;28;20131;-44
2023/02/20 03:49:58;;;;;;;7.03;1.70;;;;;;;7.43;76.03;100793.78;5062511;28;20075;-41
2023/02/20 03:52:25;;;;;;;4.15;1.60;;;;;;;7.43;75.14;100782.63;5063700;28;20397;-43
2023/02/20 03:54:52;;;;;;;3.95;1.63;;;;;;;7.39;74.73;100784.22;5063821;28;20500;-43
2023/02/20 03:57:26;;;;;;;5.22;1.83;;;;;;;7.39;75.77;100791.97;5063429;28;20437;-44
2023/02/20 04:02:41;;;;;;;4.72;3.22;;;;;;;7.36;75.22;100791.03;5043663;28;20760;-43
2023/02/20 04:05:15;;;;;;;5.30;2.95;;;;;;;7.37;75.46;100798.81;5042247;28;20098;-42
2023/02/20 04:07:48;;;;;;;5.03;2.65;;;;;;;7.37;75.52;100788.50;5061579;28;20045;-45
2023/02/20 04:10:21;;;;;;;4.15;2.40;;;;;;;7.38;76.30;100792.81;5042280;28;20048;-47
2023/02/20 04:12:50;;;;;;;3.45;1.23;;;;;;;7.38;75.28;100785.06;5032786;28;20461;-44
2023/02/20 04:15:19;;;;;;;6.20;2.70;;;;;;;7.41;76.11;100786.84;5030082;28;20077;-46
2023/02/20 04:17:54;;;;;;;5.38;2.95;;;;;;;7.41;75.16;100795.47;5044409;28;20048;-42
2023/02/20 04:20:21;;;;;;;5.43;3.00;;;;;;;7.43;75.65;100793.78;5041498;28;20045;-46
2023/02/20 04:22:51;;;;;;;5.13;3.25;;;;;;;7.43;76.07;100788.63;5017702;28;20579;-41
2023/02/20 04:25:41;;;;;;;2.85;2.05;;;;;;;7.36;75.24;100786.72;5022176;28;20588;-42
2023/02/20 04:28:08;;;;;;;3.67;3.22;;;;;;;7.41;75.28;100792.88;5002992;28;20061;-45
2023/02/20 04:30:35;;;;;;;4.60;2.47;;;;;;;7.41;74.97;100776.53;5019961;28;20138;-43
2023/02/20 04:33:02;;;;;;;3.70;1.33;;;;;;;7.39;75.95;100781.66;5024399;28;20453;-44
2023/02/20 04:35:29;;;;;;;4.35;2.28;;;;;;;7.37;75.22;100785.94;5022413;28;20123;-42
2023/02/20 04:37:56;;;;;;;3.42;2.33;;;;;;;7.30;74.97;100781.47;5020871;28;20077;-48
2023/02/20 04:40:23;;;;;;;4.03;2.13;;;;;;;7.29;75.87;100777.13;5023039;28;20076;-44
2023/02/20 04:42:50;;;;;;;3.78;2.42;;;;;;;7.25;75.08;100772.75;5021869;28;20071;-41
2023/02/20 04:45:16;;;;;;;4.15;2.78;;;;;;;7.24;74.86;100778.72;5023510;28;20119;-42
2023/02/20 04:47:44;;;;;;;4.43;3.08;;;;;;;7.18;75.40;100772.63;5023199;28;20053;-46
2023/02/20 04:50:20;;;;;;;5.95;2.75;;;;;;;7.15;75.89;100775.13;5022552;28;20119;-43
2023/02/20 04:52:47;;;;;;;6.70;2.85;;;;;;;7.14;76.18;100770.81;5027054;28;20107;-42
2023/02/20 04:55:14;;;;;;;4.18;2.92;;;;;;;7.12;75.21;100771.63;5029905;28;20049;-44
2023/02/20 04:57:40;;;;;;;5.63;3.10;;;;;;;7.10;75.75;100765.53;5043460;28;20094;-45
2023/02/20 05:00:09;;;;;;;6.30;3.08;;;;;;;7.11;75.28;100770.72;5025249;28;20132;-46
2023/02/20 05:02:38;;;;;;;4.60;3.28;;;;;;;7.11;75.34;100773.31;5022731;28;20086;-45
2023/02/20 05:05:06;;;;;;;5.57;3.00;;;;;;;7.12;76.19;100777.63;5024128;28;20100;-45
2023/02/20 05:07:33;;;;;;;4.68;2.28;;;;;;;7.10;75.68;100779.31;5021472;28;20148;-44
2023/02/20 05:10:00;;;;;;;5.35;3.97;;;;;;;7.08;75.56;100775.81;5022992;28;20042;-42
2023/02/20 05:12:26;;;;;;;6.18;3.65;;;;;;;7.10;76.49;100774.16;5016915;28;20104;-42
2023/02/20 05:14:53;;;;;;;8.25;3.00;;;;;;;7.06;76.45;100773.19;5010221;28;20509;-43
2023/02/20 05:17:21;;;;;;;4.93;2.88;;;;;;;7.07;76.18;100774.91;5010431;28;20494;-44
2023/02/20 05:19:47;;;;;;;4.50;1.42;;;;;;;7.06;76.89;100769.75;5009820;28;20500;-46
2023/02/20 05:22:17;;;;;;;7.13;3.35;;;;;;;7.03;75.88;100767.09;5006458;28;20116;-45
2023/02/20 05:24:46;;;;;;;4.35;2.65;;;;;;;7.03;75.35;100761.97;5009528;28;20103;-45
2023/02/20 05:27:16;;;;;;;4.85;2.92;;;;;;;7.02;76.56;100763.66;5010223;28;20077;-45
2023/02/20 05:29:46;;;;;;;7.57;3.38;;;;;;;7.03;76.18;100767.09;5009172;28;20088;-44
2023/02/20 05:32:14;;;;;;;;;;;;;;;6.87;78.05;100764.16;5008562;28;20074;-48
2023/02/20 05:34:42;;;;;;;6.90;3.45;;;;;;;6.97;75.95;100761.81;5009117;28;20063;-41
2023/02/20 05:37:10;;;;;;;6.95;1.95;;;;;;;6.98;76.77;100763.53;5005073;28;20465;-45
2023/02/20 05:39:37;;;;;;;6.00;3.38;;;;;;;6.97;76.56;100757.53;4996548;28;20069;-41
2023/02/20 05:42:05;;;;;;;8.18;3.63;;;;;;;6.97;76.97;100754.97;5009266;28;20129;-44
2023/02/20 05:44:32;;;;;;;5.80;3.55;;;;;;;6.96;76.18;100757.50;5009963;28;20056;-46
2023/02/20 05:46:58;;;;;;;6.05;3.05;;;;;;;6.98;76.86;100758.38;5006609;28;20085;-42
2023/02/20 05:49:25;;;;;;;5.55;3.30;;;;;;;6.99;77.63;100760.16;4999201;28;20100;-40
2023/02/20 05:51:55;;;;;;;6.22;4.82;;;;;;;6.99;77.43;100757.56;4998856;28;20049;-43
2023/02/20 05:54:22;;;;;;;6.95;3.78;;;;;;;6.97;78.10;100762.69;5008664;28;20670;-44
2023/02/20 05:56:49;;;;;;;6.45;2.63;;;;;;;7.00;77.49;100761.88;5008768;28;20133;-45
2023/02/20 05:59:19;;;;;;;5.95;3.15;;;;;;;7.01;77.42;100761.91;5009209;28;20394;-43
2023/02/20 06:01:46;;;;;;;5.40;3.75;;;;;;;7.04;77.89;100774.00;5004777;28;20076;-45
2023/02/20 06:04:12;;;;;;;6.05;3.20;;;;;;;7.05;77.80;100775.72;5007607;28;20466;-44
2023/02/20 06:06:41;;;;;;;6.55;3.72;;;;;;;7.05;76.72;100776.59;5009080;28;20524;-45
2023/02/20 06:09:10;;;;;;;6.80;3.60;;;;;;;7.08;76.54;100775.81;5008144;28;20073;-43
2023/02/20 06:11:38;;;;;;;11.10;3.22;;;;;;;7.09;77.02;100772.38;5007680;28;20674;-45
2023/02/20 06:14:05;;;;;;;7.28;4.18;;;;;;;7.10;77.28;100784.44;5006997;28;20145;-41
2023/02/20 06:16:34;;;;;;;9.60;3.90;;;;;;;7.16;76.58;100787.16;5005509;28;20050;-44
2023/02/20 06:19:00;;;;;;;6.85;3.95;;;;;;;7.19;77.51;100783.78;5006838;28;20054;-42
2023/02/20 06:21:27;;;;;;;8.25;4.15;;;;;;;7.18;77.81;100782.91;5007795;28;20102;-44
2023/02/20 06:23:54;;;;;;;4.78;2.90;;;;;;;7.15;77.36;100793.16;5009884;28;20095;-44
2023/02/20 06:26:22;;;;;;;7.25;4.38;;;;;;;7.16;78.00;100792.31;5033698;28;20186;-43
2023/02/20 06:28:49;;;;;;;6.53;3.92;;;;;;;7.17;78.03;100781.16;5025904;28;20076;-44
2023/02/20 06:31:21;;;;;;;9.45;3.85;;;;;;;7.18;77.78;100777.78;4988429;28;20089;-42
2023/02/20 06:33:48;;;;;;;6.70;3.67;;;;;;;7.18;76.69;100771.72;5001149;28;20417;-44
2023/02/20 06:36:22;;;;;;;8.07;4.20;;;;;;;7.17;76.98;100776.00;5007960;28;20054;-43
2023/02/20 06:38:49;;;;;;;5.32;2.30;;;;;;;7.16;76.78;100783.72;4990052;28;20488;-43
2023/02/20 06:41:15;;;;;;;11.10;3.58;;;;;;;7.15;77.68;100777.69;5006381;28;20042;-46
2023/02/20 06:43:42;;;;;;;6.38;3.80;;;;;;;7.14;78.39;100775.97;5005191;28;20092;-44
2023/02/20 06:46:09;;;;;;;6.10;3.83;;;;;;;7.16;78.42;100771.69;5006592;28;20145;-42
2023/02/20 06:48:54;;;;;;;6.38;3.97;;;;;;;7.12;77.16;100777.63;5007974;28;20050;-45
2023/02/20 06:51:24;;;;;;;8.10;4.30;;;;;;;7.16;77.06;100779.44;5022899;28;20046;-43
2023/02/20 06:53:51;;;;;;;6.93;2.33;;;;;;;7.17;76.92;100778.59;5005891;28;20485;-44
2023/02/20 06:56:21;;;;;;;7.55;3.95;;;;;;;7.22;77.57;100785.56;5003608;28;20053;-41
2023/02/20 06:58:50;;;;;;;6.88;3.65;;;;;;;7.25;77.55;100793.34;5006363;28;20561;-42
2023/02/20 07:01:19;;;;;;;7.97;4.53;;;;;;;7.29;77.47;100790.00;5015035;28;20418;-42
2023/02/20 07:03:47;;;;;;;6.47;3.90;;;;;;;7.36;77.40;100786.72;5026165;28;20091;-43
2023/02/20 07:06:15;;;;;;;12.27;6.57;;;;;;;7.43;78.05;100783.47;5027598;28;20069;-47
2023/02/20 07:08:42;;;;;;;17.90;9.32;;;;;;;7.45;77.40;100779.22;5023256;28;20559;-41
2023/02/20 07:11:09;;;;;;;9.90;4.57;;;;;;;7.46;78.44;100778.38;5024591;28;20444;-42
2023/02/20 07:13:36;;;;;;;13.57;9.40;;;;;;;7.45;78.11;100786.97;5025731;28;20108;-44
2023/02/20 07:16:03;;;;;;;12.48;7.28;;;;;;;7.46;78.13;100787.81;5027144;28;20073;-46
2023/02/20 07:18:29;;;;;;;5.97;3.58;;;;;;;7.45;77.65;100781.81;5026996;28;20060;-46
2023/02/20 07:20:56;;;;;;;5.78;3.47;;;;;;;7.46;77.75;100770.66;5025042;28;20072;-40
2023/02/20 07:23:23;;;;;;;5.43;2.95;;;;;;;7.46;78.19;100762.91;5027338;28;20588;-47
2023/02/20 07:25:49;;;;;;;6.18;2.05;;;;;;;7.49;78.14;100766.41;5025784;28;20484;-48
2023/02/20 07:28:17;;;;;;;5.30;3.38;;;;;;;7.51;77.40;100764.72;5027046;28;20045;-43
2023/02/20 07:30:45;;;;;;;3.72;2.83;;;;;;;7.52;78.53;100759.59;5023156;28;20081;-42
2023/02/20 07:33:12;;;;;;;4.40;1.73;;;;;;;7.56;78.69;100757.94;5021641;28;20450;-45
2023/02/20 07:35:38;;;;;;;4.47;3.10;;;;;;;7.60;78.47;100764.91;5007464;28;20398;-44
2023/02/20 07:38:05;;;;;;;4.20;2.85;;;;;;;7.61;77.90;100771.81;5007979;28;20076;-41
2023/02/20 07:40:32;;;;;;;5.10;3.88;;;;;;;7.68;78.40;100765.06;5004716;28;20124;-40
2023/02/20 07:42:59;;;;;;;4.50;2.58;;;;;;;7.72;77.76;100748.81;5007525;28;20053;-48
2023/02/20 07:45:25;;;;;;;4.60;2.72;;;;;;;7.70;78.37;100756.53;5007497;28;20046;-42
2023/02/20 07:47:52;;;;;;;3.90;2.63;;;;;;;7.82;78.71;100760.19;5007735;28;20049;-47
2023/02/20 07:50:19;;;;;;;4.80;2.08;;;;;;;7.83;79.18;100751.63;5007516;28;20069;-41
2023/02/20 07:52:46;;;;;;;3.50;3.00;;;;;;;7.91;78.87;100757.78;5005470;28;20089;-46
2023/02/20 07:55:16;;;;;;;4.22;2.58;;;;;;;8.00;78.62;100774.31;5007002;28;20502;-41
2023/02/20 07:57:46;;;;;;;5.03;3.30;;;;;;;8.04;78.20;100784.69;5007052;28;20081;-40
2023/02/20 08:00:15;;;;;;;5.00;3.03;;;;;;;8.12;78.66;100777.13;5005976;28;20100;-45
2023/02/20 08:02:42;;;;;;;4.65;3.47;;;;;;;8.20;77.75;100761.78;5005150;28;20077;-42
2023/02/20 08:05:09;;;;;;;6.15;3.88;;;;;;;8.23;78.68;100775.63;5007681;28;20099;-47
2023/02/20 08:07:36;;;;;;;4.88;3.33;;;;;;;8.65;78.40;100772.06;5004481;28;20054;-44
2023/02/20 08:10:04;;;;;;;9.35;4.20;;;;;;;9.29;77.46;100789.41;5006120;28;20046;-46
2023/02/20 08:12:31;;;;;;;4.13;2.90;;;;;;;9.87;77.17;100790.19;5007133;28;20096;-46
2023/02/20 08:14:57;;;;;;;5.85;3.40;;;;;;;10.41;76.22;100789.91;5005907;28;20490;-46
2023/02/20 08:17:24;;;;;;;5.65;4.20;;;;;;;10.89;75.24;100789.47;5007147;28;20050;-43
2023/02/20 08:19:59;;;;;;;2.83;1.33;;;;;;;11.28;73.41;100784.59;5007141;28;20432;-45
2023/02/20 08:22:26;;;;;;;3.70;2.95;;;;;;;11.61;72.95;100792.50;5004265;28;20081;-42
2023/02/20 08:25:06;;;;;;;6.25;3.72;;;;;;;11.97;71.69;100780.56;5013802;28;20076;-41
2023/02/20 08:27:37;;;;;;;5.43;4.00;;;;;;;12.38;71.47;100776.38;5018793;28;20049;-46
2023/02/20 08:30:05;;;;;;;4.60;3.25;;;;;;;12.79;71.61;100776.38;5006262;28;20068;-44
2023/02/20 08:32:32;;;;;;;6.28;5.72;;;;;;;13.20;71.07;100783.28;5007609;28;20046;-46
2023/02/20 08:34:59;;;;;;;4.50;3.17;;;;;;;13.54;69.74;100766.75;5005662;28;20671;-45
2023/02/20 08:37:25;;;;;;;4.80;4.30;;;;;;;13.90;69.45;100768.31;5016836;28;20127;-45
2023/02/20 08:39:52;;;;;;;4.70;3.53;;;;;;;14.18;68.63;100773.41;5015790;28;20050;-45
2023/02/20 08:42:18;;;;;;;5.13;3.60;;;;;;;14.37;67.93;100769.81;5006577;28;20050;-46
2023/02/20 08:44:45;;;;;;;3.83;3.40;;;;;;;14.75;67.42;100770.38;5006570;28;20050;-49
2023/02/20 08:47:11;;;;;;;5.63;4.15;;;;;;;15.27;66.73;100757.72;5007971;28;20426;-49
2023/02/20 08:49:38;;;;;;;4.32;3.63;;;;;;;15.70;64.89;100759.88;5007896;28;20081;-42
2023/02/20 08:52:05;;;;;;;3.30;3.00;;;;;;;16.13;64.37;100747.97;5010105;28;20092;-45
2023/02/20 08:54:31;;;;;;;4.03;3.63;;;;;;;16.46;63.82;100756.19;5008784;28;20145;-45
2023/02/20 08:56:58;;;;;;;3.88;3.53;;;;;;;16.86;62.17;100754.69;5010414;28;20081;-45
2023/02/20 08:59:26;;;;;;;3.50;3.20;;;;;;;17.38;61.43;100748.50;4998743;28;20120;-47
2023/02/20 09:01:52;;;;;;;2.67;2.40;;;;;;;17.84;59.62;100754.56;5024635;28;20408;-46
2023/02/20 09:04:20;;;;;;;3.05;2.85;;;;;;;18.27;58.55;100757.13;5028839;28;20042;-52
2023/02/20 09:06:47;;;;;;;3.13;2.83;;;;;;;18.83;57.86;100753.13;5019484;28;20053;-46
2023/02/20 09:09:14;;;;;;;4.05;3.72;;;;;;;19.34;56.39;100761.41;5010011;28;20073;-44
2023/02/20 09:11:41;;;;;;;3.50;3.20;;;;;;;19.77;55.65;100770.72;5009434;28;20049;-47
2023/02/20 09:14:08;;;;;;;4.13;3.70;;;;;;;20.10;54.14;100766.25;5009980;28;20259;-47
2023/02/20 09:16:34;;;;;;;3.65;3.35;;;;;;;20.28;52.90;100749.91;5006822;28;20575;-47
2023/02/20 09:19:01;;;;;;;3.92;3.63;;;;;;;20.50;52.92;100764.97;5010324;28;20092;-46
2023/02/20 09:21:28;;;;;;;3.65;3.35;;;;;;;20.76;52.01;100765.00;5009036;28;20084;-48
2023/02/20 09:23:55;;;;;;;3.53;3.10;;;;;;;21.06;51.20;100768.41;5004315;28;20074;-47
2023/02/20 09:26:21;;;;;;;3.70;2.92;;;;;;;21.39;50.61;100769.88;5009668;28;20084;-45
2023/02/20 09:28:48;;;;;;;3.30;2.92;;;;;;;21.66;50.14;100756.56;5009657;28;20108;-45
2023/02/20 09:31:14;;;;;;;3.78;3.25;;;;;;;22.00;48.81;100772.91;5009380;28;20068;-48
2023/02/20 09:33:46;;;;;;;4.45;4.15;;;;;;;22.34;48.49;100778.59;5010037;28;20127;-51
2023/02/20 09:36:17;;;;;;;13.90;6.95;;;;;;;22.72;47.63;100767.38;5002171;28;20465;-47
2023/02/20 09:38:43;;;;;;;10.50;4.85;;;;;;;23.07;47.35;100766.81;5010100;28;20053;-48
2023/02/20 09:41:24;;;;;;;13.65;6.50;;;;;;;23.39;46.65;100771.59;5009963;28;20128;-45
2023/02/20 09:46:29;;;;;;;11.15;4.25;;;;;;;23.95;45.53;100755.81;5032591;27;20394;-48
2023/02/20 09:51:44;;;;;;;17.08;6.00;;;;;;;24.44;44.44;100749.06;5056298;27;20391;-48
2023/02/20 09:54:20;;;;;;;18.30;6.85;;;;;;;24.76;43.93;100765.13;5028190;28;20041;-48
2023/02/20 09:56:55;;;;;;;12.52;3.90;;;;;;;25.07;43.38;100768.88;5040395;28;20091;-50
2023/02/20 09:59:25;;;;;;;10.90;3.92;;;;;;;25.34;43.15;100765.69;5024622;28;20085;-48
2023/02/20 10:02:09;;;;;;;10.82;4.10;;;;;;;25.60;42.39;100770.53;5043674;28;20053;-48
2023/02/20 10:04:41;;;;;;;11.98;4.47;;;;;;;25.85;41.67;100767.38;5048366;28;20076;-44
2023/02/20 10:10:16;;;;;;;9.40;3.58;;;;;;;26.24;41.34;100777.63;5035873;27;20406;-45
2023/02/20 10:12:53;;;;;;;3.30;1.70;;;;;;;26.38;40.31;100776.84;5020337;28;20053;-52
2023/02/20 10:15:30;;;;;;;5.80;2.88;;;;;;;26.50;40.59;100769.97;5024059;28;20041;-47
2023/02/20 10:26:07;;;;;;;4.90;2.53;;;;;;;26.31;39.37;100752.47;5081643;28;20394;-48
2023/02/20 10:28:34;;;;;;;3.42;2.08;;;;;;;26.41;39.18;100748.31;5033717;28;20073;-48
2023/02/20 10:33:53;;;;;;;5.03;2.40;;;;;;;26.54;38.93;100750.22;5082073;27;20392;-47
2023/02/20 10:36:24;;;;;;;3.65;1.90;;;;;;;26.55;39.33;100757.28;5059383;28;20060;-47
2023/02/20 10:39:00;;;;;;;4.72;2.97;;;;;;;26.57;39.11;100760.69;5046975;28;20076;-50
2023/02/20 10:41:33;;;;;;;6.25;2.55;;;;;;;26.53;38.65;100767.13;5064636;28;20106;-51
2023/02/20 10:44:09;;;;;;;5.20;2.83;;;;;;;26.23;38.48;100773.25;5064570;28;20064;-46
2023/02/20 10:46:48;;;;;;;4.78;2.28;;;;;;;25.80;39.15;100766.75;5058786;28;20505;-48
2023/02/20 10:49:26;;;;;;;5.68;2.65;;;;;;;25.44;39.16;100759.88;5056716;28;20049;-52
2023/02/20 10:51:58;;;;;;;6.95;3.42;;;;;;;24.96;39.70;100771.22;5061305;28;20077;-49
2023/02/20 10:54:34;;;;;;;4.25;2.28;;;;;;;24.59;40.10;100764.19;5059157;28;20110;-46
2023/02/20 10:57:15;;;;;;;;;;;;;;;24.27;40.39;100769.28;5062635;28;20075;-47
2023/02/20 10:59:49;;;;;;;11.13;3.40;;;;;;;23.78;40.95;100762.78;5063143;28;20423;-46
2023/02/20 11:02:23;;;;;;;16.55;5.15;;;;;;;23.25;41.67;100765.13;5064318;28;20052;-47
2023/02/20 11:04:57;;;;;;;16.55;4.40;;;;;;;22.66;42.20;100763.22;5060385;28;20076;-46
2023/02/20 11:07:24;;;;;;;11.73;3.78;;;;;;;22.11;42.76;100756.63;5059521;28;20053;-46
2023/02/20 11:09:50;;;;;;;13.35;4.47;;;;;;;21.65;44.24;100754.00;5063016;28;20048;-46
2023/02/20 11:12:33;;;;;;;10.18;3.38;;;;;;;21.29;44.51;100764.09;5063664;28;20052;-47
2023/02/20 11:15:06;;;;;;;9.65;3.05;;;;;;;20.89;45.47;100761.09;5061128;28;20099;-48
2023/02/20 11:17:34;;;;;;;5.57;2.63;;;;;;;20.59;45.97;100762.94;5060276;28;20048;-49
2023/02/20 11:20:03;;;;;;;4.30;1.70;;;;;;;20.31;46.31;100763.84;5049724;28;20049;-47
2023/02/20 11:28:07;;;;;;;5.13;1.65;;;;;;;19.74;47.42;100768.16;5050838;27;20402;-47
2023/02/20 11:30:38;;;;;;;1.73;0.95;;;;;;;19.38;47.84;100753.41;5052447;28;20545;-46
2023/02/20 11:33:16;;;;;;;1.23;0.90;;;;;;;19.07;48.49;100754.28;5022589;28;20409;-48
2023/02/20 11:35:46;;;;;;;3.08;1.85;;;;;;;18.83;49.39;100755.75;5024290;28;20140;-45
2023/02/20 11:51:45;;;;;;;2.70;2.08;;;;;;;17.47;52.45;100730.00;5049432;28;20414;-46
2023/02/20 12:10:59;;;;;;;1.13;0.60;;;;;;;16.77;54.25;100712.97;5064449;28;20371;-44
2023/02/20 12:13:26;;;;;;;0.73;0.73;;;;;;;16.73;55.08;100711.28;5033560;27;20057;-51
2023/02/20 12:16:02;;;;;;;1.42;1.15;;;;;;;16.70;55.24;100702.63;5008670;28;20340;-48
2023/02/20 12:26:58;;;;;;;0.80;0.60;;;;;;;16.52;55.61;100698.56;5038940;28;20409;-43
2023/02/20 12:35:21;;;;;;;1.70;1.60;;;;;;;16.51;55.69;100693.38;5028845;28;20428;-46
2023/02/20 12:38:03;;;;;;;2.22;2.13;;;;;;;16.59;56.53;100694.09;5018706;28;20145;-47
2023/02/20 12:46:23;;;;;;;1.27;0.52;;;;;;;16.43;56.08;100683.91;5036342;27;20398;-49
2023/02/20 12:57:23;;;;;;;1.73;1.63;;;;;;;16.33;56.85;100677.09;5064246;27;20739;-46
2023/02/20 13:02:35;;;;;;;1.48;0.57;;;;;;;16.22;57.27;100689.47;5065039;28;20371;-42
2023/02/20 13:05:13;;;;;;;1.98;0.50;;;;;;;16.22;57.67;100689.47;5010995;28;20074;-45
2023/02/20 13:07:49;;;;;;;1.38;0.57;;;;;;;16.15;57.38;100694.81;5016386;28;20053;-44
2023/02/20 13:12:57;;;;;;;1.98;0.85;;;;;;;16.05;57.00;100693.22;5039069;27;20406;-49
2023/02/20 13:21:10;;;;;;;0.57;0.57;;;;;;;16.11;57.85;100658.31;5052088;27;20404;-43
2023/02/20 13:23:37;;;;;;;0.50;0.47;;;;;;;16.16;57.69;100649.50;5000254;28;20046;-45
2023/02/20 13:29:24;;;;;;;1.88;0.52;;;;;;;16.44;57.02;100641.19;5069166;27;20406;-46
2023/02/20 13:31:55;;;;;;;1.17;1.08;;;;;;;16.53;57.00;100636.69;5064614;28;20485;-45
2023/02/20 13:43:25;;;;;;;1.70;1.60;;;;;;;16.38;56.59;100625.59;5040134;27;20398;-44
2023/02/20 13:59:11;;;;;;;7.65;0.60;;;;;;;15.84;58.28;100637.75;5064492;28;20434;-44
2023/02/20 14:02:19;;;;;;;1.63;0.45;;;;;;;15.75;58.68;100622.25;5029758;28;20041;-43
2023/02/20 14:05:00;;;;;;;1.35;0.85;;;;;;;15.75;58.04;100617.03;5010689;28;20081;-48
2023/02/20 14:07:31;;;;;;;0.60;0.40;;;;;;;15.75;58.33;100611.81;5021845;28;20045;-46
2023/02/20 14:10:00;;;;;;;0.50;0.30;;;;;;;15.73;58.35;100618.78;5022577;28;20050;-49
2023/02/20 14:12:27;;;;;;;0.55;0.40;;;;;;;15.70;58.71;100618.84;5024293;28;20085;-46
2023/02/20 14:14:54;;;;;;;1.73;0.55;;;;;;;15.66;58.78;100613.66;5024132;28;20073;-45
2023/02/20 14:17:22;;;;;;;0.40;0.13;;;;;;;15.65;58.61;100604.13;5024355;28;20132;-47
2023/02/20 14:19:56;;;;;;;0.55;0.47;;;;;;;15.59;58.98;100609.41;5013782;28;20115;-46
2023/02/20 14:22:38;;;;;;;;;;;;;;;15.42;59.72;100600.09;5021781;28;20081;-46
2023/02/20 14:27:46;;;;;;;8.90;0.63;;;;;;;15.54;59.25;100603.41;5095620;27;20824;-44